createdAt,value
2023-02-23T00:01:39.425Z,88.77
2023-02-23T00:04:07.264Z,89.45
2023-02-23T00:06:36.640Z,89.16
2023-02-23T00:09:10.740Z,88.35
2023-02-23T00:11:39.497Z,87.70
2023-02-23T00:14:08.243Z,87.73
2023-02-23T00:16:37.364Z,88.51
2023-02-23T00:19:08.014Z,89.22
2023-02-23T00:21:35.848Z,90.69
2023-02-23T00:24:06.194Z,91.13
2023-02-23T00:26:35.129Z,92.21
2023-02-23T00:29:08.238Z,90.60
2023-02-23T00:31:35.956Z,89.86
2023-02-23T00:34:04.451Z,89.41
2023-02-23T00:36:33.813Z,89.17
2023-02-23T00:39:03.563Z,89.32
2023-02-23T00:41:30.969Z,88.78
2023-02-23T00:44:00.123Z,89.40
2023-02-23T00:46:31.091Z,89.75
2023-02-23T00:49:00.356Z,90.76
2023-02-23T00:51:30.898Z,90.48
2023-02-23T00:54:00.384Z,90.33
2023-02-23T00:56:28.552Z,90.05
2023-02-23T00:58:56.645Z,90.35
2023-02-23T01:01:24.419Z,89.82
2023-02-23T01:03:53.974Z,89.90
2023-02-23T01:06:21.757Z,89.89
2023-02-23T01:08:51.386Z,88.88
2023-02-23T01:11:21.807Z,88.20
2023-02-23T01:13:52.950Z,87.83
2023-02-23T01:16:22.277Z,87.66
2023-02-23T01:18:50.386Z,87.46
2023-02-23T01:21:20.547Z,86.85
2023-02-23T01:23:48.242Z,86.97
2023-02-23T01:26:17.013Z,86.37
2023-02-23T01:28:44.439Z,86.33
2023-02-23T01:31:11.935Z,85.96
2023-02-23T01:33:39.318Z,85.41
2023-02-23T01:36:07.314Z,85.39
2023-02-23T01:38:35.910Z,84.94
2023-02-23T01:41:03.617Z,84.66
2023-02-23T01:43:31.015Z,84.61
2023-02-23T01:45:58.927Z,83.88
2023-02-23T01:48:31.273Z,84.16
2023-02-23T01:51:04.183Z,84.13
2023-02-23T01:53:35.793Z,83.88
2023-02-23T01:56:11.308Z,83.52
2023-02-23T01:58:40.051Z,83.32
2023-02-23T02:01:08.038Z,83.01
2023-02-23T02:03:39.229Z,82.87
2023-02-23T02:06:10.566Z,83.15
2023-02-23T02:08:44.932Z,83.05
2023-02-23T02:11:26.075Z,82.30
2023-02-23T02:13:54.817Z,82.28
2023-02-23T02:16:35.733Z,81.90
2023-02-23T02:19:25.231Z,82.27
2023-02-23T02:22:25.580Z,82.40
2023-02-23T02:25:19.796Z,82.17
2023-02-23T02:28:14.975Z,82.10
2023-02-23T02:30:59.134Z,81.83
2023-02-23T02:34:06.693Z,81.21
2023-02-23T02:36:57.316Z,81.72
2023-02-23T02:39:36.449Z,81.68
2023-02-23T02:42:15.643Z,81.77
2023-02-23T02:44:53.205Z,81.95
2023-02-23T02:47:28.096Z,81.92
2023-02-23T02:50:05.008Z,81.80
2023-02-23T02:52:36.639Z,81.91
2023-02-23T02:55:12.175Z,82.00
2023-02-23T02:57:41.018Z,82.85
2023-02-23T03:00:27.618Z,82.73
2023-02-23T03:03:12.341Z,83.31
2023-02-23T03:06:00.688Z,82.77
2023-02-23T03:08:56.128Z,82.61
2023-02-23T03:11:46.294Z,82.60
2023-02-23T03:14:42.809Z,83.10
2023-02-23T03:17:38.739Z,83.17
2023-02-23T03:20:33.115Z,83.24
2023-02-23T03:23:24.970Z,82.66
2023-02-23T03:26:21.009Z,82.48
2023-02-23T03:29:14.612Z,82.17
2023-02-23T03:32:06.894Z,82.61
2023-02-23T03:34:59.622Z,82.90
2023-02-23T03:37:49.880Z,82.94
2023-02-23T03:40:37.644Z,82.71
2023-02-23T03:43:26.351Z,83.31
2023-02-23T03:46:14.580Z,82.84
2023-02-23T03:49:01.777Z,83.49
2023-02-23T03:51:50.126Z,83.26
2023-02-23T03:54:39.081Z,82.92
2023-02-23T03:57:28.643Z,83.50
2023-02-23T04:00:19.222Z,83.15
2023-02-23T04:03:08.423Z,82.95
2023-02-23T04:05:56.272Z,83.30
2023-02-23T04:08:46.117Z,83.57
2023-02-23T04:11:37.405Z,83.06
2023-02-23T04:14:08.542Z,82.75
2023-02-23T04:16:39.565Z,82.60
2023-02-23T04:19:07.225Z,82.98
2023-02-23T04:21:34.591Z,82.76
2023-02-23T04:24:01.989Z,82.31
2023-02-23T04:26:29.369Z,83.03
2023-02-23T04:28:57.109Z,82.93
2023-02-23T04:31:26.089Z,83.05
2023-02-23T04:33:55.060Z,82.93
2023-02-23T04:36:24.171Z,82.86
2023-02-23T04:38:51.583Z,82.85
2023-02-23T04:41:20.149Z,82.47
2023-02-23T04:43:47.611Z,82.70
2023-02-23T04:46:15.244Z,83.36
2023-02-23T04:48:42.634Z,82.65
2023-02-23T04:51:11.319Z,83.04
2023-02-23T04:53:39.397Z,82.83
2023-02-23T04:56:07.385Z,83.11
2023-02-23T04:58:34.761Z,82.93
2023-02-23T05:01:06.237Z,83.33
2023-02-23T05:03:34.171Z,82.87
2023-02-23T05:06:01.537Z,82.91
2023-02-23T05:08:30.532Z,83.09
2023-02-23T05:10:58.035Z,83.26
2023-02-23T05:13:25.651Z,83.02
2023-02-23T05:15:57.526Z,83.03
2023-02-23T05:18:26.331Z,83.59
2023-02-23T05:20:53.859Z,83.73
2023-02-23T05:23:21.640Z,83.44
2023-02-23T05:25:50.339Z,83.21
2023-02-23T05:28:17.686Z,83.29
2023-02-23T05:30:45.369Z,82.96
2023-02-23T05:33:14.015Z,82.91
2023-02-23T05:35:41.555Z,83.33
2023-02-23T05:38:08.950Z,83.55
2023-02-23T05:40:37.230Z,83.76
2023-02-23T05:43:05.938Z,83.99
2023-02-23T05:45:34.200Z,84.14
2023-02-23T05:48:01.564Z,84.63
2023-02-23T05:50:29.451Z,84.42
2023-02-23T05:52:56.899Z,84.49
2023-02-23T05:55:24.418Z,84.81
2023-02-23T05:57:51.797Z,85.32
2023-02-23T06:00:21.210Z,85.27
2023-02-23T06:02:49.959Z,85.29
2023-02-23T06:05:17.622Z,85.85
2023-02-23T06:07:45.067Z,86.12
2023-02-23T06:10:13.234Z,86.54
2023-02-23T06:12:40.746Z,86.26
2023-02-23T06:15:08.660Z,86.55
2023-02-23T06:17:37.618Z,86.09
2023-02-23T06:20:07.289Z,86.41
2023-02-23T06:22:35.051Z,85.87
2023-02-23T06:25:04.558Z,85.58
2023-02-23T06:27:32.265Z,85.21
2023-02-23T06:29:59.696Z,85.20
2023-02-23T06:32:27.912Z,85.13
2023-02-23T06:34:56.629Z,85.18
2023-02-23T06:37:24.020Z,84.95
2023-02-23T06:39:51.409Z,85.03
2023-02-23T06:42:18.901Z,84.05
2023-02-23T06:44:46.662Z,84.14
2023-02-23T06:47:14.123Z,84.32
2023-02-23T06:49:41.487Z,84.82
2023-02-23T06:52:13.369Z,83.54
2023-02-23T06:54:41.720Z,83.84
2023-02-23T06:57:09.155Z,83.37
2023-02-23T06:59:37.460Z,82.86
2023-02-23T07:02:05.682Z,82.71
2023-02-23T07:04:34.029Z,82.79
2023-02-23T07:07:01.429Z,82.63
2023-02-23T07:09:30.778Z,82.93
2023-02-23T07:11:58.293Z,82.20
2023-02-23T07:14:27.151Z,82.09
2023-02-23T07:16:55.258Z,82.51
2023-02-23T07:19:23.332Z,81.56
2023-02-23T07:21:50.702Z,81.72
2023-02-23T07:24:18.141Z,81.32
2023-02-23T07:26:47.267Z,81.22
2023-02-23T07:29:14.754Z,80.81
2023-02-23T07:31:42.870Z,81.04
2023-02-23T07:34:10.427Z,80.30
2023-02-23T07:36:37.980Z,80.77
2023-02-23T07:39:05.770Z,80.65
2023-02-23T07:41:33.370Z,80.04
2023-02-23T07:44:02.185Z,80.03
2023-02-23T07:46:29.582Z,79.15
2023-02-23T07:48:56.965Z,79.21
2023-02-23T07:51:24.340Z,78.79
2023-02-23T07:53:51.765Z,78.14
2023-02-23T07:56:19.132Z,77.82
2023-02-23T07:58:46.574Z,77.95
2023-02-23T08:01:15.882Z,77.56
2023-02-23T08:03:49.357Z,77.49
2023-02-23T08:06:17.485Z,77.63
2023-02-23T08:08:45.189Z,76.95
2023-02-23T08:11:13.001Z,76.43
2023-02-23T08:13:40.564Z,76.24
2023-02-23T08:16:09.162Z,75.73
2023-02-23T08:18:37.898Z,75.70
2023-02-23T08:21:06.110Z,75.60
2023-02-23T08:23:34.038Z,75.23
2023-02-23T08:26:02.313Z,74.99
2023-02-23T08:28:31.206Z,74.34
2023-02-23T08:30:59.936Z,74.20
2023-02-23T08:33:27.805Z,74.16
2023-02-23T08:36:02.628Z,74.08
2023-02-23T08:38:31.457Z,73.91
2023-02-23T08:41:00.995Z,73.71
2023-02-23T08:43:28.445Z,73.67
2023-02-23T08:45:55.928Z,73.55
2023-02-23T08:48:24.376Z,72.47
2023-02-23T08:50:52.152Z,71.97
2023-02-23T08:53:22.949Z,71.77
2023-02-23T08:55:51.744Z,71.37
2023-02-23T08:58:19.143Z,71.11
2023-02-23T09:00:46.529Z,71.07
2023-02-23T09:03:13.882Z,71.47
2023-02-23T09:05:41.263Z,71.23
2023-02-23T09:08:08.725Z,70.96
2023-02-23T09:10:37.442Z,70.80
2023-02-23T09:13:04.889Z,70.90
2023-02-23T09:15:32.327Z,70.74
2023-02-23T09:18:01.357Z,71.20
2023-02-23T09:20:28.919Z,71.57
2023-02-23T09:22:56.316Z,71.03
2023-02-23T09:25:23.926Z,71.13
2023-02-23T09:27:54.364Z,71.31
2023-02-23T09:30:22.432Z,70.62
2023-02-23T09:32:50.215Z,70.23
2023-02-23T09:35:19.001Z,70.79
2023-02-23T09:37:47.577Z,69.69
2023-02-23T09:40:17.681Z,69.71
2023-02-23T09:42:50.695Z,69.29
2023-02-23T09:45:27.116Z,68.83
2023-02-23T09:48:09.388Z,67.99
2023-02-23T09:50:39.253Z,68.30
2023-02-23T09:53:14.077Z,67.85
2023-02-23T09:55:44.361Z,67.78
2023-02-23T09:58:21.794Z,67.36
2023-02-23T10:01:01.803Z,66.95
2023-02-23T10:03:32.625Z,66.47
2023-02-23T10:06:03.475Z,66.62
2023-02-23T10:08:47.282Z,66.32
2023-02-23T10:11:24.252Z,65.76
2023-02-23T10:14:03.199Z,65.99
2023-02-23T10:16:43.916Z,65.77
2023-02-23T10:19:20.217Z,64.84
2023-02-23T10:21:55.283Z,63.78
2023-02-23T10:24:28.297Z,63.59
2023-02-23T10:27:00.331Z,63.00
2023-02-23T10:29:33.267Z,63.40
2023-02-23T10:32:07.205Z,63.43
2023-02-23T10:34:36.916Z,63.68
2023-02-23T10:37:06.790Z,63.54
2023-02-23T10:39:34.739Z,63.20
2023-02-23T10:42:06.442Z,62.64
2023-02-23T10:44:33.980Z,63.02
2023-02-23T10:47:07.195Z,62.80
2023-02-23T10:49:42.072Z,62.69
2023-02-23T10:52:13.492Z,62.72
2023-02-23T10:54:44.512Z,62.52
2023-02-23T10:57:16.802Z,62.74
2023-02-23T11:00:07.323Z,62.80
2023-02-23T11:02:37.276Z,62.33
2023-02-23T11:05:07.188Z,62.10
2023-02-23T11:07:35.334Z,61.32
2023-02-23T11:10:25.277Z,60.97
2023-02-23T11:12:52.670Z,60.55
2023-02-23T11:15:46.557Z,59.63
2023-02-23T11:18:24.322Z,58.68
2023-02-23T11:20:52.591Z,58.49
2023-02-23T11:23:24.447Z,58.91
2023-02-23T11:25:55.729Z,58.14
2023-02-23T11:28:29.093Z,57.84
2023-02-23T11:30:58.129Z,58.06
2023-02-23T11:33:35.821Z,57.65
2023-02-23T11:36:15.075Z,56.07
2023-02-23T11:38:42.473Z,55.58
2023-02-23T11:41:21.503Z,55.49
2023-02-23T11:43:51.093Z,55.30
2023-02-23T11:46:21.698Z,55.16
2023-02-23T11:48:53.961Z,54.67
2023-02-23T11:51:30.405Z,55.10
2023-02-23T11:53:58.889Z,54.45
2023-02-23T11:56:28.557Z,54.43
2023-02-23T11:59:00.142Z,54.71
2023-02-23T12:01:41.650Z,54.59
2023-02-23T12:04:12.643Z,54.86
2023-02-23T12:06:42.594Z,55.21
2023-02-23T12:09:19.421Z,55.33
2023-02-23T12:11:52.118Z,55.27
2023-02-23T12:14:27.666Z,55.23
2023-02-23T12:17:01.880Z,55.46
2023-02-23T12:19:35.111Z,55.55
2023-02-23T12:22:07.080Z,55.71
2023-02-23T12:24:44.204Z,56.40
2023-02-23T12:27:16.717Z,55.49
2023-02-23T12:30:00.048Z,56.31
2023-02-23T12:32:33.781Z,56.34
2023-02-23T12:35:08.102Z,55.89
2023-02-23T12:37:40.404Z,55.38
2023-02-23T12:40:18.550Z,56.03
2023-02-23T12:42:56.545Z,56.05
2023-02-23T12:45:30.137Z,56.75
2023-02-23T12:48:07.408Z,56.88
2023-02-23T12:50:43.215Z,57.04
2023-02-23T12:53:20.711Z,56.46
2023-02-23T12:56:02.050Z,55.56
2023-02-23T12:58:37.223Z,55.40
2023-02-23T13:01:12.689Z,55.12
2023-02-23T13:04:13.555Z,54.25
2023-02-23T13:06:51.529Z,55.05
2023-02-23T13:09:31.878Z,55.23
2023-02-23T13:12:15.594Z,54.94
2023-02-23T13:14:50.889Z,55.24
2023-02-23T13:17:32.903Z,55.66
2023-02-23T13:20:05.140Z,55.82
2023-02-23T13:22:41.515Z,55.52
2023-02-23T13:25:25.210Z,56.13
2023-02-23T13:27:57.418Z,56.11
2023-02-23T13:30:24.815Z,56.87
2023-02-23T13:32:53.482Z,57.00
2023-02-23T13:35:21.890Z,56.88
2023-02-23T13:37:54.781Z,56.05
2023-02-23T13:40:32.373Z,56.47
2023-02-23T13:43:09.788Z,56.49
2023-02-23T13:45:48.661Z,56.89
2023-02-23T13:48:28.958Z,56.63
2023-02-23T13:51:02.308Z,57.69
2023-02-23T13:53:40.599Z,57.88
2023-02-23T13:56:10.898Z,58.52
2023-02-23T13:58:46.557Z,59.01
2023-02-23T14:01:18.510Z,59.57
2023-02-23T14:03:55.285Z,59.44
2023-02-23T14:06:25.583Z,60.92
2023-02-23T14:09:00.690Z,60.48
2023-02-23T14:11:30.723Z,60.59
2023-02-23T14:14:01.153Z,60.74
2023-02-23T14:16:28.593Z,60.81
2023-02-23T14:19:37.910Z,61.92
2023-02-23T14:22:10.217Z,63.33
2023-02-23T14:24:38.958Z,63.85
2023-02-23T14:27:40.365Z,63.86
2023-02-23T14:30:25.308Z,64.37
2023-02-23T14:32:54.542Z,64.49
2023-02-23T14:35:44.430Z,65.53
2023-02-23T14:38:18.554Z,65.72
2023-02-23T14:40:51.570Z,67.04
2023-02-23T14:43:33.592Z,67.45
2023-02-23T14:46:05.714Z,67.42
2023-02-23T14:48:36.580Z,68.42
2023-02-23T14:51:17.137Z,69.21
2023-02-23T14:53:44.601Z,69.63
2023-02-23T14:56:21.435Z,70.37
2023-02-23T14:58:53.227Z,71.35
2023-02-23T15:01:34.684Z,72.68
2023-02-23T15:04:10.451Z,73.24
2023-02-23T15:06:41.114Z,75.04
2023-02-23T15:09:17.339Z,75.98
2023-02-23T15:11:49.933Z,78.76
2023-02-23T15:14:27.498Z,82.42
2023-02-23T15:16:57.274Z,83.36
2023-02-23T15:19:34.972Z,85.32
2023-02-23T15:22:05.377Z,87.67
2023-02-23T15:24:41.063Z,88.63
2023-02-23T15:27:17.903Z,90.72
2023-02-23T15:29:45.782Z,91.22
2023-02-23T15:32:18.924Z,91.22
2023-02-23T15:34:46.861Z,91.20
2023-02-23T15:37:24.108Z,91.37
2023-02-23T15:39:54.730Z,89.53
2023-02-23T15:42:26.591Z,89.14
2023-02-23T15:45:01.278Z,89.20
2023-02-23T15:47:34.556Z,89.73
2023-02-23T15:50:07.418Z,90.98
2023-02-23T15:52:35.790Z,89.48
2023-02-23T15:55:08.081Z,91.97
2023-02-23T15:57:47.993Z,92.67
2023-02-23T16:00:23.376Z,92.02
2023-02-23T16:02:51.518Z,92.22
2023-02-23T16:05:21.499Z,91.08
2023-02-23T16:07:49.128Z,93.38
2023-02-23T16:10:23.110Z,93.97
2023-02-23T16:12:53.907Z,94.99
2023-02-23T16:15:27.067Z,95.89
2023-02-23T16:17:58.635Z,96.44
2023-02-23T16:20:35.540Z,94.52
2023-02-23T16:23:04.259Z,94.45
2023-02-23T16:25:34.079Z,97.62
2023-02-23T16:28:06.191Z,98.35
2023-02-23T16:30:40.401Z,97.42
2023-02-23T16:33:19.724Z,98.66
2023-02-23T16:35:49.747Z,100.00
2023-02-23T16:38:25.626Z,100.00
2023-02-23T16:40:53.193Z,100.00
2023-02-23T16:43:22.486Z,100.00
2023-02-23T16:45:50.239Z,100.00
2023-02-23T16:48:19.344Z,100.00
2023-02-23T16:50:47.716Z,100.00
2023-02-23T16:53:16.792Z,100.00
2023-02-23T16:55:49.908Z,100.00
2023-02-23T16:58:20.350Z,100.00
2023-02-23T17:00:49.109Z,100.00
2023-02-23T17:03:20.248Z,100.00
2023-02-23T17:05:48.244Z,100.00
2023-02-23T17:08:15.578Z,100.00
2023-02-23T17:10:46.615Z,100.00
2023-02-23T17:13:20.430Z,100.00
2023-02-23T17:15:51.745Z,100.00
2023-02-23T17:18:20.339Z,100.00
2023-02-23T17:20:49.417Z,100.00
2023-02-23T17:23:16.794Z,100.00
2023-02-23T17:25:44.522Z,100.00
2023-02-23T17:28:11.947Z,100.00
2023-02-23T17:30:42.542Z,100.00
2023-02-23T17:33:11.813Z,100.00
2023-02-23T17:35:39.240Z,100.00
2023-02-23T17:38:08.319Z,99.43
2023-02-23T17:40:37.771Z,100.00
2023-02-23T17:43:08.259Z,99.36
2023-02-23T17:45:35.691Z,99.97
2023-02-23T17:48:03.081Z,100.00
2023-02-23T17:50:31.974Z,97.95
2023-02-23T17:52:59.334Z,95.13
2023-02-23T17:55:26.768Z,93.57
2023-02-23T17:57:57.403Z,91.95
2023-02-23T18:00:24.964Z,90.62
2023-02-23T18:02:52.383Z,90.29
2023-02-23T18:05:20.071Z,89.79
2023-02-23T18:07:49.041Z,89.79
2023-02-23T18:10:17.329Z,89.32
2023-02-23T18:12:45.315Z,90.22
2023-02-23T18:15:14.418Z,90.38
2023-02-23T18:17:41.869Z,91.99
2023-02-23T18:20:13.920Z,91.88
2023-02-23T18:22:41.424Z,92.23
2023-02-23T18:25:20.840Z,92.19
2023-02-23T18:27:50.967Z,92.93
2023-02-23T18:30:18.604Z,94.22
2023-02-23T18:32:46.064Z,97.45
2023-02-23T18:35:13.747Z,97.16
2023-02-23T18:37:44.494Z,97.13
2023-02-23T18:40:21.664Z,96.82
2023-02-23T18:42:49.795Z,96.69
2023-02-23T18:45:18.050Z,95.96
2023-02-23T18:47:45.752Z,95.13
2023-02-23T18:50:19.352Z,94.56
2023-02-23T18:52:48.893Z,96.83
2023-02-23T18:55:18.367Z,99.40
2023-02-23T18:57:46.734Z,100.00
2023-02-23T19:00:15.914Z,98.90
2023-02-23T19:02:46.306Z,99.91
2023-02-23T19:05:15.190Z,99.22
2023-02-23T19:07:43.129Z,100.00
2023-02-23T19:10:12.873Z,100.00
2023-02-23T19:12:41.814Z,99.75
2023-02-23T19:15:10.482Z,100.00
2023-02-23T19:17:38.273Z,100.00
2023-02-23T19:20:12.789Z,100.00
2023-02-23T19:22:43.655Z,99.28
2023-02-23T19:25:15.141Z,98.23
2023-02-23T19:27:43.980Z,98.48
2023-02-23T19:30:13.604Z,99.20
2023-02-23T19:32:41.262Z,98.98
2023-02-23T19:35:14.641Z,99.10
2023-02-23T19:37:48.127Z,98.68
2023-02-23T19:40:16.597Z,99.02
2023-02-23T19:42:46.026Z,99.28
2023-02-23T19:45:13.885Z,99.03
2023-02-23T19:47:41.533Z,98.93
2023-02-23T19:50:10.703Z,98.50
2023-02-23T19:52:38.946Z,98.54
2023-02-23T19:55:07.738Z,98.09
2023-02-23T19:57:35.151Z,98.75
2023-02-23T20:00:04.719Z,98.67
2023-02-23T20:02:32.248Z,98.06
2023-02-23T20:04:59.648Z,97.75
2023-02-23T20:07:27.151Z,97.85
2023-02-23T20:09:54.621Z,98.49
2023-02-23T20:12:22.010Z,98.53
2023-02-23T20:14:49.573Z,100.00
2023-02-23T20:17:18.250Z,100.00
2023-02-23T20:19:45.616Z,100.00
2023-02-23T20:22:13.356Z,100.00
2023-02-23T20:24:40.845Z,100.00
2023-02-23T20:27:08.361Z,100.00
2023-02-23T20:29:35.959Z,99.98
2023-02-23T20:32:04.259Z,100.00
2023-02-23T20:34:35.556Z,100.00
2023-02-23T20:37:04.197Z,100.00
2023-02-23T20:39:31.638Z,100.00
2023-02-23T20:41:59.230Z,100.00
2023-02-23T20:44:28.029Z,100.00
2023-02-23T20:46:55.589Z,100.00
2023-02-23T20:49:25.071Z,100.00
2023-02-23T20:51:54.063Z,100.00
2023-02-23T20:54:22.027Z,100.00
2023-02-23T20:56:58.667Z,100.00
2023-02-23T20:59:29.876Z,100.00
2023-02-23T21:01:57.341Z,100.00
2023-02-23T21:04:24.841Z,100.00
2023-02-23T21:06:53.551Z,100.00
2023-02-23T21:09:22.922Z,100.00
2023-02-23T21:11:50.381Z,100.00
2023-02-23T21:14:18.828Z,100.00
2023-02-23T21:16:46.277Z,100.00
2023-02-23T21:19:14.651Z,100.00
2023-02-23T21:21:43.309Z,100.00
2023-02-23T21:24:13.323Z,100.00
2023-02-23T21:26:40.712Z,100.00
2023-02-23T21:29:11.697Z,100.00
2023-02-23T21:31:39.794Z,100.00
2023-02-23T21:34:09.300Z,100.00
2023-02-23T21:36:37.178Z,100.00
2023-02-23T21:39:04.824Z,100.00
2023-02-23T21:41:34.478Z,100.00
2023-02-23T21:44:02.637Z,100.00
2023-02-23T21:46:30.061Z,100.00
2023-02-23T21:48:57.506Z,100.00
2023-02-23T21:51:25.481Z,100.00
2023-02-23T21:53:57.849Z,100.00
2023-02-23T21:56:25.273Z,100.00
2023-02-23T21:58:56.647Z,100.00
2023-02-23T22:01:26.866Z,100.00
2023-02-23T22:03:55.006Z,100.00
2023-02-23T22:06:24.224Z,100.00
2023-02-23T22:08:51.844Z,100.00
2023-02-23T22:11:22.004Z,100.00
2023-02-23T22:13:51.286Z,100.00
2023-02-23T22:16:20.379Z,100.00
2023-02-23T22:18:48.485Z,100.00
2023-02-23T22:21:15.778Z,100.00
2023-02-23T22:23:47.755Z,100.00
2023-02-23T22:26:15.595Z,100.00
2023-02-23T22:28:43.110Z,100.00
2023-02-23T22:31:13.703Z,100.00
2023-02-23T22:33:44.554Z,100.00
2023-02-23T22:36:14.624Z,100.00
2023-02-23T22:38:42.490Z,100.00
2023-02-23T22:41:11.172Z,100.00
2023-02-23T22:43:38.865Z,100.00
2023-02-23T22:46:07.559Z,100.00
2023-02-23T22:48:36.699Z,100.00
2023-02-23T22:51:07.754Z,100.00
2023-02-23T22:53:35.168Z,100.00
2023-02-23T22:56:02.519Z,100.00
2023-02-23T22:58:31.472Z,100.00
2023-02-23T23:01:03.987Z,100.00
2023-02-23T23:03:33.891Z,100.00
2023-02-23T23:06:02.789Z,100.00
2023-02-23T23:08:36.382Z,100.00
2023-02-23T23:11:09.225Z,100.00
2023-02-23T23:13:40.335Z,100.00
2023-02-23T23:16:16.788Z,100.00
2023-02-23T23:18:54.805Z,100.00
2023-02-23T23:21:24.549Z,100.00
2023-02-23T23:23:56.501Z,100.00
2023-02-23T23:26:26.271Z,100.00
2023-02-23T23:28:56.111Z,100.00
2023-02-23T23:31:27.985Z,100.00
2023-02-23T23:33:59.802Z,100.00
2023-02-23T23:36:29.768Z,100.00
2023-02-23T23:38:59.517Z,100.00
2023-02-23T23:41:28.342Z,100.00
2023-02-23T23:43:58.073Z,100.00
2023-02-23T23:46:27.837Z,100.00
2023-02-23T23:48:57.899Z,100.00
2023-02-23T23:51:27.577Z,100.00
2023-02-23T23:53:55.555Z,100.00
2023-02-23T23:56:24.375Z,100.00
2023-02-23T23:58:53.709Z,100.00
